createdAt,value
2023-02-16T00:00:21.900Z,58.90
2023-02-16T00:02:49.482Z,59.00
2023-02-16T00:05:27.690Z,59.10
2023-02-16T00:07:56.401Z,59.80
2023-02-16T00:10:25.159Z,59.60
2023-02-16T00:13:12.031Z,59.60
2023-02-16T00:15:39.631Z,59.60
2023-02-16T00:18:18.600Z,59.70
2023-02-16T00:20:46.360Z,58.90
2023-02-16T00:23:13.299Z,59.20
2023-02-16T00:25:40.640Z,59.50
2023-02-16T00:28:18.431Z,59.10
2023-02-16T00:30:45.798Z,59.30
2023-02-16T00:33:19.525Z,59.60
2023-02-16T00:35:46.793Z,59.60
2023-02-16T00:38:16.160Z,59.70
2023-02-16T00:40:43.612Z,59.50
2023-02-16T00:43:26.253Z,59.80
2023-02-16T00:45:53.614Z,59.90
2023-02-16T00:48:21.165Z,60.00
2023-02-16T00:50:48.550Z,60.00
2023-02-16T00:53:18.194Z,60.00
2023-02-16T00:55:45.251Z,59.80
2023-02-16T00:58:22.858Z,60.30
2023-02-16T01:00:54.325Z,60.80
2023-02-16T01:03:25.775Z,60.30
2023-02-16T01:06:12.019Z,60.20
2023-02-16T01:08:57.215Z,60.40
2023-02-16T01:11:25.683Z,60.30
2023-02-16T01:13:54.064Z,59.70
2023-02-16T01:16:24.005Z,59.60
2023-02-16T01:18:52.743Z,60.70
2023-02-16T01:21:21.866Z,60.90
2023-02-16T01:23:49.156Z,60.10
2023-02-16T01:26:18.912Z,60.60
2023-02-16T01:28:47.780Z,60.60
2023-02-16T01:31:16.816Z,60.20
2023-02-16T01:33:44.237Z,60.90
2023-02-16T01:36:28.440Z,60.70
2023-02-16T01:38:55.536Z,61.00
2023-02-16T01:42:03.741Z,60.70
2023-02-16T01:44:41.076Z,61.00
2023-02-16T01:47:41.497Z,61.10
2023-02-16T01:50:24.630Z,61.60
2023-02-16T01:52:51.624Z,61.20
2023-02-16T01:55:24.958Z,61.10
2023-02-16T01:58:02.364Z,61.30
2023-02-16T02:00:56.867Z,61.30
2023-02-16T02:03:43.894Z,61.60
2023-02-16T02:06:13.641Z,61.60
2023-02-16T02:09:03.954Z,61.60
2023-02-16T02:11:40.624Z,61.80
2023-02-16T02:14:19.374Z,61.60
2023-02-16T02:17:07.460Z,61.70
2023-02-16T02:20:01.915Z,61.80
2023-02-16T02:23:11.776Z,61.60
2023-02-16T02:26:20.861Z,61.30
2023-02-16T02:29:26.758Z,62.00
2023-02-16T02:32:14.787Z,62.10
2023-02-16T02:35:02.662Z,61.80
2023-02-16T02:37:58.676Z,62.00
2023-02-16T02:41:00.544Z,61.90
2023-02-16T02:43:36.134Z,61.70
2023-02-16T02:46:14.465Z,62.00
2023-02-16T02:48:42.272Z,62.20
2023-02-16T02:51:28.072Z,63.00
2023-02-16T02:54:54.710Z,62.50
2023-02-16T02:58:09.916Z,61.80
2023-02-16T03:00:41.632Z,61.40
2023-02-16T03:03:33.349Z,61.10
2023-02-16T03:06:06.682Z,60.80
2023-02-16T03:08:36.881Z,60.90
2023-02-16T03:11:28.737Z,61.00
2023-02-16T03:14:18.545Z,60.70
2023-02-16T03:16:51.261Z,61.60
2023-02-16T03:19:37.202Z,60.90
2023-02-16T03:22:24.079Z,62.00
2023-02-16T03:25:09.505Z,60.90
2023-02-16T03:27:59.341Z,61.50
2023-02-16T03:30:27.222Z,61.90
2023-02-16T03:32:55.017Z,61.60
2023-02-16T03:35:22.253Z,61.40
2023-02-16T03:37:49.497Z,61.20
2023-02-16T03:40:30.176Z,61.20
2023-02-16T03:43:02.794Z,61.50
2023-02-16T03:45:31.348Z,61.60
2023-02-16T03:47:58.734Z,61.10
2023-02-16T03:50:27.136Z,61.20
2023-02-16T03:53:07.759Z,61.40
2023-02-16T03:55:48.742Z,61.50
2023-02-16T03:58:21.879Z,61.50
2023-02-16T04:00:49.069Z,61.40
2023-02-16T04:03:16.668Z,61.90
2023-02-16T04:05:43.897Z,61.90
2023-02-16T04:08:11.398Z,61.90
2023-02-16T04:10:39.258Z,61.90
2023-02-16T04:13:06.716Z,62.30
2023-02-16T04:15:34.090Z,62.40
2023-02-16T04:18:01.535Z,62.30
2023-02-16T04:20:31.098Z,61.80
2023-02-16T04:22:58.651Z,61.10
2023-02-16T04:25:26.118Z,61.70
2023-02-16T04:27:53.309Z,62.00
2023-02-16T04:30:23.181Z,61.80
2023-02-16T04:32:50.784Z,61.80
2023-02-16T04:35:18.380Z,62.00
2023-02-16T04:37:45.403Z,62.10
2023-02-16T04:40:17.154Z,63.10
2023-02-16T04:42:45.205Z,61.90
2023-02-16T04:45:12.729Z,61.80
2023-02-16T04:47:39.741Z,61.60
2023-02-16T04:50:07.686Z,61.90
2023-02-16T04:52:34.694Z,61.80
2023-02-16T04:55:01.691Z,62.10
2023-02-16T04:57:28.749Z,61.00
2023-02-16T04:59:55.723Z,61.70
2023-02-16T05:02:23.029Z,61.70
2023-02-16T05:04:50.130Z,61.40
2023-02-16T05:07:17.069Z,62.00
2023-02-16T05:09:43.994Z,61.80
2023-02-16T05:12:30.208Z,62.00
2023-02-16T05:14:57.117Z,61.60
2023-02-16T05:17:26.719Z,61.30
2023-02-16T05:19:59.167Z,61.30
2023-02-16T05:22:28.888Z,60.70
2023-02-16T05:24:55.853Z,60.70
2023-02-16T05:27:25.745Z,60.60
2023-02-16T05:29:52.854Z,60.40
2023-02-16T05:32:20.080Z,60.10
2023-02-16T05:34:47.219Z,60.50
2023-02-16T05:37:15.827Z,60.10
2023-02-16T05:39:43.002Z,60.00
2023-02-16T05:42:10.052Z,59.90
2023-02-16T05:44:37.865Z,59.70
2023-02-16T05:47:04.838Z,59.50
2023-02-16T05:49:32.033Z,59.40
2023-02-16T05:51:59.135Z,59.20
2023-02-16T05:54:27.979Z,59.70
2023-02-16T05:56:55.109Z,59.70
2023-02-16T05:59:22.324Z,60.30
2023-02-16T06:01:51.824Z,59.80
2023-02-16T06:04:20.423Z,60.00
2023-02-16T06:06:47.685Z,58.40
2023-02-16T06:09:15.074Z,58.80
2023-02-16T06:11:42.376Z,59.10
2023-02-16T06:14:12.484Z,59.40
2023-02-16T06:16:41.828Z,59.70
2023-02-16T06:19:09.836Z,59.70
2023-02-16T06:21:38.143Z,60.50
2023-02-16T06:24:06.165Z,61.20
2023-02-16T06:26:33.567Z,61.60
2023-02-16T06:29:00.626Z,61.20
2023-02-16T06:31:28.059Z,61.70
2023-02-16T06:33:56.891Z,61.70
2023-02-16T06:36:24.544Z,62.10
2023-02-16T06:38:51.571Z,62.00
2023-02-16T06:41:31.439Z,62.20
2023-02-16T06:44:00.878Z,62.40
2023-02-16T06:46:28.497Z,62.20
2023-02-16T06:48:55.699Z,61.60
2023-02-16T06:51:22.773Z,61.00
2023-02-16T06:53:49.811Z,60.90
2023-02-16T06:56:16.916Z,61.20
2023-02-16T06:58:43.957Z,61.40
2023-02-16T07:01:12.062Z,61.00
2023-02-16T07:03:39.065Z,61.80
2023-02-16T07:06:06.684Z,61.00
2023-02-16T07:08:35.686Z,60.70
2023-02-16T07:11:03.230Z,59.70
2023-02-16T07:13:30.441Z,59.80
2023-02-16T07:15:57.497Z,60.00
2023-02-16T07:18:24.628Z,59.50
2023-02-16T07:20:51.619Z,59.30
2023-02-16T07:23:18.592Z,59.50
2023-02-16T07:25:45.543Z,59.20
2023-02-16T07:28:12.654Z,59.30
2023-02-16T07:30:40.183Z,59.20
2023-02-16T07:33:07.150Z,59.40
2023-02-16T07:35:35.495Z,59.20
2023-02-16T07:38:03.587Z,59.00
2023-02-16T07:40:31.127Z,59.00
2023-02-16T07:43:02.373Z,58.90
2023-02-16T07:45:30.153Z,58.80
2023-02-16T07:47:57.196Z,58.90
2023-02-16T07:50:24.525Z,58.60
2023-02-16T07:52:51.458Z,58.50
2023-02-16T07:55:18.685Z,58.60
2023-02-16T07:57:45.837Z,58.40
2023-02-16T08:00:13.304Z,58.50
2023-02-16T08:02:40.895Z,59.10
2023-02-16T08:05:08.307Z,58.40
2023-02-16T08:07:35.337Z,58.40
2023-02-16T08:10:02.624Z,57.90
2023-02-16T08:12:29.598Z,58.20
2023-02-16T08:14:56.533Z,58.00
2023-02-16T08:17:23.661Z,58.30
2023-02-16T08:19:50.955Z,58.00
2023-02-16T08:22:18.330Z,58.10
2023-02-16T08:24:45.462Z,58.20
2023-02-16T08:27:12.646Z,57.80
2023-02-16T08:29:39.758Z,58.00
2023-02-16T08:32:07.814Z,57.70
2023-02-16T08:34:35.604Z,57.60
2023-02-16T08:37:02.611Z,58.00
2023-02-16T08:39:31.696Z,58.10
2023-02-16T08:42:00.497Z,58.00
2023-02-16T08:44:29.074Z,58.00
2023-02-16T08:46:58.927Z,58.30
2023-02-16T08:49:26.110Z,58.00
2023-02-16T08:51:55.753Z,57.90
2023-02-16T08:54:30.266Z,58.20
2023-02-16T08:56:59.122Z,57.70
2023-02-16T08:59:28.885Z,57.90
2023-02-16T09:02:00.223Z,58.10
2023-02-16T09:04:31.315Z,58.20
2023-02-16T09:07:00.204Z,58.10
2023-02-16T09:09:28.626Z,57.60
2023-02-16T09:11:56.160Z,57.70
2023-02-16T09:14:23.376Z,57.90
2023-02-16T09:16:50.568Z,58.10
2023-02-16T09:19:20.772Z,58.70
2023-02-16T09:21:50.874Z,58.80
2023-02-16T09:24:19.262Z,58.70
2023-02-16T09:26:46.395Z,58.80
2023-02-16T09:29:13.989Z,58.70
2023-02-16T09:31:42.278Z,58.90
2023-02-16T09:34:21.583Z,59.40
2023-02-16T09:36:49.730Z,58.20
2023-02-16T09:39:17.185Z,58.50
2023-02-16T09:42:21.706Z,58.80
2023-02-16T09:44:58.709Z,58.70
2023-02-16T09:47:31.057Z,58.90
2023-02-16T09:50:02.057Z,58.90
2023-02-16T09:52:35.800Z,59.00
2023-02-16T09:55:08.065Z,58.90
2023-02-16T09:57:43.542Z,58.50
2023-02-16T10:00:34.343Z,58.70
2023-02-16T10:03:13.370Z,58.80
2023-02-16T10:05:52.027Z,58.80
2023-02-16T10:08:27.545Z,58.90
2023-02-16T10:11:41.315Z,59.20
2023-02-16T10:14:33.761Z,58.50
2023-02-16T10:17:06.701Z,58.90
2023-02-16T10:20:06.099Z,58.60
2023-02-16T10:22:37.740Z,59.10
2023-02-16T10:25:17.062Z,59.40
2023-02-16T10:27:47.902Z,59.30
2023-02-16T10:30:23.028Z,59.60
2023-02-16T10:33:03.948Z,59.60
2023-02-16T10:35:49.006Z,59.60
2023-02-16T10:38:29.869Z,59.40
2023-02-16T10:41:18.284Z,59.60
2023-02-16T10:43:58.297Z,59.40
2023-02-16T10:46:31.110Z,59.40
2023-02-16T10:48:59.834Z,59.70
2023-02-16T10:51:36.598Z,59.80
2023-02-16T10:54:19.992Z,59.50
2023-02-16T10:56:59.608Z,59.50
2023-02-16T10:59:38.320Z,59.40
2023-02-16T11:02:22.043Z,59.60
2023-02-16T11:04:54.451Z,59.60
2023-02-16T11:07:24.675Z,59.50
2023-02-16T11:09:54.855Z,59.60
2023-02-16T11:12:39.475Z,59.50
2023-02-16T11:15:16.674Z,59.40
2023-02-16T11:18:17.045Z,59.70
2023-02-16T11:20:46.676Z,59.80
2023-02-16T11:23:22.888Z,59.30
2023-02-16T11:26:10.149Z,59.10
2023-02-16T11:28:40.894Z,58.80
2023-02-16T11:31:18.764Z,58.90
2023-02-16T11:34:06.432Z,59.10
2023-02-16T11:36:41.149Z,59.20
2023-02-16T11:39:14.304Z,59.10
2023-02-16T11:41:52.364Z,59.00
2023-02-16T11:44:38.599Z,58.90
2023-02-16T11:47:41.674Z,58.90
2023-02-16T11:50:29.253Z,58.10
2023-02-16T11:53:11.480Z,58.40
2023-02-16T11:55:41.837Z,59.00
2023-02-16T11:58:27.775Z,59.10
2023-02-16T12:01:08.621Z,59.00
2023-02-16T12:03:59.825Z,58.70
2023-02-16T12:07:04.789Z,58.60
2023-02-16T12:09:49.727Z,58.60
2023-02-16T12:12:21.089Z,58.40
2023-02-16T12:15:11.461Z,58.10
2023-02-16T12:17:47.093Z,58.60
2023-02-16T12:20:55.644Z,59.10
2023-02-16T12:23:59.017Z,59.30
2023-02-16T12:26:34.080Z,58.70
2023-02-16T12:29:11.218Z,58.60
2023-02-16T12:32:16.758Z,58.50
2023-02-16T12:35:15.930Z,58.00
2023-02-16T12:37:49.971Z,58.20
2023-02-16T12:40:37.344Z,58.70
2023-02-16T12:43:28.611Z,59.00
2023-02-16T12:45:58.076Z,59.00
2023-02-16T12:48:40.091Z,59.10
2023-02-16T12:51:13.924Z,59.30
2023-02-16T12:53:49.969Z,58.90
2023-02-16T12:56:23.635Z,58.50
2023-02-16T12:59:04.007Z,58.80
2023-02-16T13:01:35.805Z,58.40
2023-02-16T13:04:20.292Z,57.80
2023-02-16T13:07:02.477Z,58.10
2023-02-16T13:09:36.487Z,58.30
2023-02-16T13:12:40.478Z,57.80
2023-02-16T13:15:20.701Z,57.10
2023-02-16T13:18:03.088Z,57.30
2023-02-16T13:20:30.251Z,58.30
2023-02-16T13:23:19.085Z,57.80
2023-02-16T13:26:10.824Z,57.50
2023-02-16T13:28:38.291Z,57.20
2023-02-16T13:31:12.546Z,57.30
2023-02-16T13:34:07.306Z,56.90
2023-02-16T13:36:42.980Z,57.00
2023-02-16T13:39:18.729Z,56.90
2023-02-16T13:42:07.223Z,56.70
2023-02-16T13:44:39.018Z,56.90
2023-02-16T13:47:07.566Z,56.60
2023-02-16T13:49:43.161Z,56.80
2023-02-16T13:52:26.126Z,57.10
2023-02-16T13:54:53.701Z,57.50
2023-02-16T13:57:50.676Z,57.30
2023-02-16T14:00:30.561Z,57.70
2023-02-16T14:03:04.210Z,58.00
2023-02-16T14:05:37.917Z,57.70
2023-02-16T14:08:11.042Z,57.70
2023-02-16T14:10:53.467Z,57.30
2023-02-16T14:13:39.220Z,57.70
2023-02-16T14:16:31.679Z,58.10
2023-02-16T14:19:22.463Z,58.00
2023-02-16T14:21:50.320Z,58.30
2023-02-16T14:24:29.347Z,57.80
2023-02-16T14:27:09.586Z,57.60
2023-02-16T14:29:44.295Z,57.30
2023-02-16T14:32:29.109Z,57.50
2023-02-16T14:35:20.933Z,57.50
2023-02-16T14:38:05.611Z,57.20
2023-02-16T14:40:43.641Z,57.10
2023-02-16T14:43:34.148Z,57.40
2023-02-16T14:46:38.529Z,57.00
2023-02-16T14:49:06.587Z,57.20
2023-02-16T14:51:55.772Z,57.00
2023-02-16T14:54:22.669Z,56.80
2023-02-16T14:57:19.797Z,56.90
2023-02-16T14:59:57.351Z,57.00
2023-02-16T15:02:38.986Z,57.10
2023-02-16T15:05:23.570Z,57.30
2023-02-16T15:07:55.321Z,57.00
2023-02-16T15:10:27.149Z,56.80
2023-02-16T15:12:55.797Z,57.10
2023-02-16T15:15:36.177Z,56.90
2023-02-16T15:18:06.492Z,56.90
2023-02-16T15:20:36.718Z,57.50
2023-02-16T15:23:25.766Z,57.40
2023-02-16T15:26:01.819Z,56.90
2023-02-16T15:28:31.274Z,56.70
2023-02-16T15:31:05.762Z,56.90
2023-02-16T15:33:38.637Z,57.50
2023-02-16T15:36:24.537Z,57.60
2023-02-16T15:38:58.770Z,57.80
2023-02-16T15:41:48.625Z,57.70
2023-02-16T15:44:36.830Z,57.40
2023-02-16T15:47:13.816Z,57.10
2023-02-16T15:49:40.979Z,57.80
2023-02-16T15:52:29.875Z,58.60
2023-02-16T15:54:57.770Z,57.70
2023-02-16T15:57:30.921Z,58.10
2023-02-16T16:00:00.618Z,58.70
2023-02-16T16:02:38.601Z,58.80
2023-02-16T16:05:09.822Z,58.50
2023-02-16T16:07:40.776Z,58.70
2023-02-16T16:10:16.860Z,58.10
2023-02-16T16:12:45.022Z,58.40
2023-02-16T16:15:21.335Z,58.70
2023-02-16T16:17:48.759Z,57.90
2023-02-16T16:20:29.068Z,57.90
2023-02-16T16:23:02.073Z,58.10
2023-02-16T16:25:40.196Z,58.30
2023-02-16T16:28:11.035Z,58.40
2023-02-16T16:30:45.258Z,58.80
2023-02-16T16:33:14.654Z,59.20
2023-02-16T16:35:47.711Z,58.20
2023-02-16T16:38:24.538Z,58.80
2023-02-16T16:40:58.041Z,59.00
2023-02-16T16:43:30.133Z,59.30
2023-02-16T16:46:23.449Z,59.30
2023-02-16T16:48:53.946Z,59.60
2023-02-16T16:51:41.770Z,59.60
2023-02-16T16:54:35.931Z,59.40
2023-02-16T16:57:17.383Z,59.70
2023-02-16T16:59:44.468Z,59.80
2023-02-16T17:02:11.445Z,59.60
2023-02-16T17:04:38.538Z,59.50
2023-02-16T17:07:06.986Z,59.40
2023-02-16T17:09:33.964Z,59.60
2023-02-16T17:12:00.897Z,59.70
2023-02-16T17:14:28.599Z,59.50
2023-02-16T17:16:56.459Z,59.90
2023-02-16T17:19:27.346Z,59.80
2023-02-16T17:21:54.398Z,59.80
2023-02-16T17:24:23.809Z,60.10
2023-02-16T17:26:51.060Z,60.20
2023-02-16T17:29:18.060Z,60.40
2023-02-16T17:31:45.069Z,59.80
2023-02-16T17:34:11.981Z,59.60
2023-02-16T17:36:39.138Z,59.50
2023-02-16T17:39:07.233Z,59.30
2023-02-16T17:41:34.259Z,59.30
2023-02-16T17:44:01.404Z,59.70
2023-02-16T17:46:29.276Z,59.20
2023-02-16T17:48:56.399Z,59.50
2023-02-16T17:51:25.362Z,59.50
2023-02-16T17:53:52.575Z,59.00
2023-02-16T17:56:22.486Z,59.30
2023-02-16T17:58:50.111Z,59.70
2023-02-16T18:01:18.282Z,58.90
2023-02-16T18:03:45.414Z,58.70
2023-02-16T18:06:17.389Z,59.00
2023-02-16T18:08:45.082Z,59.10
2023-02-16T18:11:12.601Z,58.60
2023-02-16T18:13:40.107Z,58.10
2023-02-16T18:16:08.446Z,58.80
2023-02-16T18:18:36.879Z,58.80
2023-02-16T18:21:04.381Z,58.70
2023-02-16T18:23:32.037Z,58.80
2023-02-16T18:25:59.114Z,58.70
2023-02-16T18:28:30.751Z,59.40
2023-02-16T18:31:01.441Z,59.30
2023-02-16T18:33:28.674Z,59.30
2023-02-16T18:35:57.515Z,59.50
2023-02-16T18:38:25.037Z,59.70
2023-02-16T18:40:54.030Z,59.70
2023-02-16T18:43:22.126Z,59.80
2023-02-16T18:45:49.253Z,60.20
2023-02-16T18:48:16.368Z,59.80
2023-02-16T18:50:43.355Z,60.60
2023-02-16T18:53:10.299Z,61.60
2023-02-16T18:55:37.263Z,60.40
2023-02-16T18:58:07.936Z,59.90
2023-02-16T19:00:36.536Z,60.60
2023-02-16T19:03:03.998Z,60.70
2023-02-16T19:05:31.634Z,60.70
2023-02-16T19:07:58.703Z,61.50
2023-02-16T19:10:25.763Z,61.60
2023-02-16T19:12:52.885Z,61.00
2023-02-16T19:15:20.004Z,61.20
2023-02-16T19:17:47.003Z,60.60
2023-02-16T19:20:18.113Z,61.20
2023-02-16T19:22:46.916Z,61.00
2023-02-16T19:25:15.134Z,61.40
2023-02-16T19:27:45.044Z,61.90
2023-02-16T19:30:12.736Z,61.50
2023-02-16T19:32:41.211Z,62.10
2023-02-16T19:35:12.317Z,62.10
2023-02-16T19:37:39.384Z,61.50
2023-02-16T19:40:08.626Z,61.00
2023-02-16T19:42:35.769Z,60.10
2023-02-16T19:45:03.266Z,60.70
2023-02-16T19:47:30.328Z,60.60
2023-02-16T19:49:57.794Z,61.20
2023-02-16T19:52:24.906Z,61.20
2023-02-16T19:54:52.004Z,61.20
2023-02-16T19:57:19.355Z,61.30
2023-02-16T19:59:46.273Z,61.50
2023-02-16T20:02:15.431Z,62.00
2023-02-16T20:04:43.407Z,61.50
2023-02-16T20:07:10.465Z,60.70
2023-02-16T20:09:37.589Z,61.30
2023-02-16T20:12:05.244Z,60.50
2023-02-16T20:14:32.245Z,60.90
2023-02-16T20:16:59.216Z,61.10
2023-02-16T20:19:26.178Z,61.40
2023-02-16T20:21:53.130Z,61.60
2023-02-16T20:24:20.527Z,61.40
2023-02-16T20:26:49.128Z,60.70
2023-02-16T20:29:16.694Z,60.70
2023-02-16T20:31:56.225Z,61.10
2023-02-16T20:34:25.896Z,61.00
2023-02-16T20:36:52.965Z,60.50
2023-02-16T20:39:20.218Z,61.10
2023-02-16T20:41:47.469Z,60.50
2023-02-16T20:44:14.970Z,59.90
2023-02-16T20:46:42.592Z,59.20
2023-02-16T20:49:10.113Z,59.50
2023-02-16T20:51:38.224Z,59.60
2023-02-16T20:54:06.082Z,59.70
2023-02-16T20:56:33.371Z,59.70
2023-02-16T20:59:01.519Z,60.00
2023-02-16T21:01:31.407Z,59.70
2023-02-16T21:03:59.821Z,60.30
2023-02-16T21:06:28.365Z,60.20
2023-02-16T21:08:56.081Z,59.80
2023-02-16T21:11:24.162Z,59.60
2023-02-16T21:13:54.712Z,60.00
2023-02-16T21:16:21.945Z,59.40
2023-02-16T21:18:49.165Z,58.90
2023-02-16T21:21:16.525Z,59.00
2023-02-16T21:23:46.679Z,59.00
2023-02-16T21:26:14.532Z,58.70
2023-02-16T21:28:41.953Z,59.20
2023-02-16T21:31:12.694Z,59.20
2023-02-16T21:33:41.004Z,58.90
2023-02-16T21:36:11.523Z,59.30
2023-02-16T21:38:39.133Z,58.90
2023-02-16T21:41:24.493Z,58.90
2023-02-16T21:43:58.499Z,58.60
2023-02-16T21:46:26.516Z,58.40
2023-02-16T21:48:55.168Z,58.40
2023-02-16T21:51:28.273Z,58.80
2023-02-16T21:53:56.561Z,58.80
2023-02-16T21:56:44.873Z,58.80
2023-02-16T21:59:14.362Z,58.40
2023-02-16T22:01:47.533Z,58.90
2023-02-16T22:04:17.293Z,58.60
2023-02-16T22:06:47.312Z,58.50
2023-02-16T22:09:19.725Z,58.30
2023-02-16T22:11:47.743Z,58.40
2023-02-16T22:14:15.450Z,58.30
2023-02-16T22:16:45.747Z,57.90
2023-02-16T22:19:14.958Z,57.80
2023-02-16T22:21:43.969Z,57.50
2023-02-16T22:24:13.626Z,57.60
2023-02-16T22:26:41.023Z,57.50
2023-02-16T22:29:09.395Z,57.60
2023-02-16T22:31:37.127Z,57.50
2023-02-16T22:34:06.431Z,57.50
2023-02-16T22:36:34.468Z,57.80
2023-02-16T22:39:01.497Z,57.60
2023-02-16T22:41:28.715Z,57.40
2023-02-16T22:43:57.276Z,57.40
2023-02-16T22:46:24.812Z,57.40
2023-02-16T22:48:52.670Z,58.10
2023-02-16T22:51:21.484Z,58.00
2023-02-16T22:53:48.712Z,58.10
2023-02-16T22:56:18.218Z,58.30
2023-02-16T22:58:45.958Z,58.20
2023-02-16T23:01:15.233Z,58.20
2023-02-16T23:03:42.814Z,58.50
2023-02-16T23:06:15.619Z,58.60
2023-02-16T23:08:44.200Z,58.10
2023-02-16T23:11:12.402Z,58.00
2023-02-16T23:13:39.572Z,57.80
2023-02-16T23:16:13.852Z,57.60
2023-02-16T23:18:41.487Z,57.90
2023-02-16T23:21:14.014Z,57.80
2023-02-16T23:23:41.292Z,57.60
2023-02-16T23:26:08.852Z,57.70
2023-02-16T23:28:36.634Z,58.00
2023-02-16T23:31:04.293Z,57.90
2023-02-16T23:33:31.311Z,58.20
2023-02-16T23:36:01.737Z,57.90
2023-02-16T23:38:29.058Z,57.90
2023-02-16T23:41:01.681Z,58.00
2023-02-16T23:43:28.680Z,58.20
2023-02-16T23:45:56.281Z,58.20
2023-02-16T23:48:27.461Z,58.00
2023-02-16T23:50:54.579Z,58.30
2023-02-16T23:53:23.338Z,58.20
2023-02-16T23:56:00.620Z,58.00
2023-02-16T23:58:33.073Z,58.00
